Time;durP1;ratioP1;P1;durP2;ratioP2;P2;SDS_P1;SDS_P2;PMS_P1;PMS_P2;Temp;Humidity;BMP_temperature;BMP_pressure;BME280_temperature;BME280_humidity;BME280_pressure;Samples;Min_cycle;Max_cycle;Signal;HPM_P1;HPM_P2
2022/01/09 00:00:10;;;;;;;2.42;0.80;;;6.70;99.90;;;;;;5012693;28;20246;-88
2022/01/09 00:02:37;;;;;;;2.53;0.60;;;6.60;99.90;;;;;;5004797;28;20305;-89
2022/01/09 00:05:04;;;;;;;2.22;0.65;;;6.20;99.90;;;;;;5005323;28;20574;-88
2022/01/09 00:07:33;;;;;;;2.50;0.73;;;6.90;99.90;;;;;;5004449;28;20230;-89
2022/01/09 00:10:00;;;;;;;2.75;0.75;;;6.60;99.90;;;;;;5011491;28;20222;-88
2022/01/09 00:12:27;;;;;;;2.67;0.93;;;6.40;99.90;;;;;;5010197;28;20615;-88
2022/01/09 00:14:53;;;;;;;2.40;0.63;;;6.20;99.90;;;;;;5004725;28;20261;-88
2022/01/09 00:17:20;;;;;;;2.20;0.60;;;6.80;99.90;;;;;;5007400;23;20238;-87
2022/01/09 00:19:47;;;;;;;4.35;0.60;;;6.30;99.90;;;;;;4983602;28;20630;-88
2022/01/09 00:22:16;;;;;;;2.55;0.68;;;6.60;99.90;;;;;;4985537;28;20294;-88
2022/01/09 00:24:44;;;;;;;2.45;0.70;;;6.30;99.90;;;;;;4984953;28;20299;-88
2022/01/09 00:27:11;;;;;;;2.30;0.57;;;6.80;99.90;;;;;;4985965;28;20295;-89
2022/01/09 00:29:38;;;;;;;2.70;0.70;;;6.60;99.90;;;;;;4985564;28;20593;-87
2022/01/09 00:32:06;;;;;;;2.28;0.60;;;6.30;99.90;;;;;;4988835;28;20307;-88
2022/01/09 00:34:32;;;;;;;2.40;0.80;;;6.60;99.90;;;;;;4996046;28;20294;-87
2022/01/09 00:36:59;;;;;;;2.00;0.40;;;6.60;99.90;;;;;;5001705;28;20220;-88
2022/01/09 00:39:26;;;;;;;2.50;0.60;;;6.20;99.90;;;;;;4999581;28;20200;-88
2022/01/09 00:41:55;;;;;;;2.47;0.60;;;6.30;99.90;;;;;;4998112;28;20211;-89
2022/01/09 00:44:21;;;;;;;2.47;0.60;;;6.50;99.90;;;;;;5002082;28;20215;-88
2022/01/09 00:46:48;;;;;;;2.75;0.80;;;6.50;99.90;;;;;;5002323;28;20254;-87
2022/01/09 00:49:15;;;;;;;2.35;0.60;;;6.60;99.90;;;;;;5002283;28;20279;-88
2022/01/09 00:51:42;;;;;;;2.20;0.68;;;6.10;99.90;;;;;;5001820;28;20243;-88
2022/01/09 00:54:09;;;;;;;2.33;0.60;;;6.10;99.90;;;;;;4990592;28;20266;-88
2022/01/09 00:56:36;;;;;;;2.40;0.60;;;6.00;99.90;;;;;;5000467;28;20226;-87
2022/01/09 00:59:04;;;;;;;2.25;0.60;;;6.50;99.90;;;;;;4982816;28;20670;-87
2022/01/09 01:01:31;;;;;;;2.20;0.60;;;6.10;99.90;;;;;;4981615;28;20206;-88
2022/01/09 01:03:58;;;;;;;2.30;0.50;;;6.00;99.90;;;;;;4982318;28;20690;-88
2022/01/09 01:06:25;;;;;;;4.85;0.52;;;6.40;99.90;;;;;;4981042;28;20235;-89
2022/01/09 01:08:52;;;;;;;2.58;0.57;;;6.60;99.90;;;;;;4981075;28;20712;-88
2022/01/09 01:11:20;;;;;;;2.00;0.50;;;6.00;99.90;;;;;;4993377;28;20293;-88
2022/01/09 01:13:47;;;;;;;2.20;0.60;;;6.20;99.90;;;;;;4982118;28;20233;-88
2022/01/09 01:16:15;;;;;;;2.00;0.50;;;6.10;99.90;;;;;;4982116;28;20215;-89
2022/01/09 01:18:44;;;;;;;2.10;0.40;;;6.10;99.90;;;;;;4982546;28;20815;-89
2022/01/09 01:21:11;;;;;;;2.30;0.50;;;6.20;99.90;;;;;;4993405;28;20219;-89
2022/01/09 01:23:38;;;;;;;2.10;0.40;;;6.40;99.90;;;;;;4994325;28;20242;-88
2022/01/09 01:26:05;;;;;;;3.75;0.50;;;6.10;99.90;;;;;;4988256;28;20211;-89
2022/01/09 01:28:32;;;;;;;2.25;0.57;;;6.10;99.90;;;;;;4983669;28;20308;-88
2022/01/09 01:30:59;;;;;;;2.08;0.47;;;6.30;99.90;;;;;;4986019;28;20294;-87
2022/01/09 01:33:27;;;;;;;2.10;0.57;;;6.20;99.90;;;;;;4987512;28;20240;-88
2022/01/09 01:35:54;;;;;;;2.28;0.60;;;6.10;99.90;;;;;;4981312;28;20742;-88
2022/01/09 01:38:21;;;;;;;2.00;0.40;;;6.30;99.90;;;;;;4981201;28;20232;-88
2022/01/09 01:40:48;;;;;;;3.45;0.50;;;6.20;99.90;;;;;;4982064;28;20211;-88
2022/01/09 01:43:15;;;;;;;2.20;0.75;;;6.30;99.90;;;;;;4980527;28;20241;-89
2022/01/09 01:45:42;;;;;;;2.00;0.40;;;6.30;99.90;;;;;;4983814;28;20226;-89
2022/01/09 01:48:09;;;;;;;2.10;0.50;;;6.70;99.90;;;;;;4997880;28;20239;-89
2022/01/09 01:50:38;;;;;;;2.20;0.50;;;6.60;99.90;;;;;;4981042;28;20211;-88
2022/01/09 01:53:07;;;;;;;2.28;0.60;;;6.20;99.90;;;;;;4984272;28;20225;-88
2022/01/09 01:55:37;;;;;;;2.40;0.50;;;6.30;99.90;;;;;;4982553;28;20218;-88
2022/01/09 01:58:05;;;;;;;2.30;0.50;;;6.30;99.90;;;;;;4983426;28;20321;-88
2022/01/09 02:00:32;;;;;;;2.00;0.40;;;6.30;99.90;;;;;;4995674;28;20203;-88
2022/01/09 02:02:59;;;;;;;2.00;0.47;;;6.30;99.90;;;;;;4998864;28;20207;-88
2022/01/09 02:05:26;;;;;;;2.10;0.50;;;6.60;99.90;;;;;;4995669;28;20234;-87
2022/01/09 02:07:58;;;;;;;2.13;0.45;;;6.50;99.90;;;;;;4987655;28;20239;-88
2022/01/09 02:10:25;;;;;;;2.10;0.50;;;6.30;99.90;;;;;;4982366;28;20193;-88
2022/01/09 02:12:56;;;;;;;3.05;0.50;;;6.70;99.90;;;;;;4984236;28;20226;-88
2022/01/09 02:15:34;;;;;;;1.95;0.40;;;6.40;99.90;;;;;;4981486;28;20319;-88
2022/01/09 02:18:03;;;;;;;2.08;0.45;;;6.80;99.90;;;;;;4979938;28;20239;-88
2022/01/09 02:20:32;;;;;;;2.03;0.47;;;6.60;99.90;;;;;;4980918;28;20223;-88
2022/01/09 02:22:59;;;;;;;2.00;0.40;;;6.70;99.90;;;;;;4980328;28;20207;-88
2022/01/09 02:25:27;;;;;;;2.45;0.60;;;6.20;99.90;;;;;;4981314;28;20207;-88
2022/01/09 02:27:54;;;;;;;2.25;0.50;;;6.60;99.90;;;;;;4990051;28;20226;-88
2022/01/09 02:30:21;;;;;;;2.10;0.40;;;6.20;99.90;;;;;;4994593;28;20298;-88
2022/01/09 02:32:48;;;;;;;2.00;0.40;;;6.70;99.90;;;;;;4983439;28;20301;-88
2022/01/09 02:35:15;;;;;;;2.20;0.50;;;6.70;99.90;;;;;;4980090;28;20228;-90
2022/01/09 02:37:44;;;;;;;2.00;0.40;;;6.60;99.90;;;;;;4986506;28;20299;-88
2022/01/09 02:40:11;;;;;;;2.15;0.40;;;6.20;99.90;;;;;;4997938;28;20232;-88
2022/01/09 02:42:38;;;;;;;2.00;0.50;;;6.60;99.90;;;;;;4989085;28;20195;-88
2022/01/09 02:45:06;;;;;;;2.00;0.40;;;6.30;99.90;;;;;;4996135;28;20238;-88
2022/01/09 02:47:34;;;;;;;2.83;0.52;;;6.60;99.90;;;;;;4996211;28;20227;-89
2022/01/09 02:50:10;;;;;;;2.00;0.40;;;6.60;99.90;;;;;;4986090;28;20210;-88
2022/01/09 02:52:48;;;;;;;2.00;0.40;;;6.50;99.90;;;;;;4979547;28;20219;-89
2022/01/09 02:55:18;;;;;;;2.08;0.50;;;6.30;99.90;;;;;;4979471;28;20228;-89
2022/01/09 02:57:46;;;;;;;1.95;0.40;;;6.30;99.90;;;;;;4980384;28;20231;-89
2022/01/09 03:00:15;;;;;;;2.85;0.45;;;6.50;99.90;;;;;;4984316;28;20560;-88
2022/01/09 03:02:43;;;;;;;1.90;0.40;;;6.60;99.90;;;;;;4983545;28;20239;-88
2022/01/09 03:05:11;;;;;;;2.30;0.40;;;6.50;99.90;;;;;;4979271;28;20210;-89
2022/01/09 03:07:38;;;;;;;2.20;0.57;;;6.60;99.90;;;;;;4978075;28;20232;-89
2022/01/09 03:10:07;;;;;;;2.20;0.50;;;6.10;99.90;;;;;;4979740;28;20323;-88
2022/01/09 03:12:37;;;;;;;2.00;0.40;;;6.60;99.90;;;;;;4978374;28;20207;-88
2022/01/09 03:15:06;;;;;;;1.98;0.40;;;6.30;99.90;;;;;;4977784;28;20714;-87
2022/01/09 03:17:33;;;;;;;2.00;0.40;;;6.60;99.90;;;;;;4977393;28;20346;-90
2022/01/09 03:20:00;;;;;;;2.20;0.50;;;6.50;99.90;;;;;;4977534;28;20728;-88
2022/01/09 03:22:27;;;;;;;2.53;0.60;;;6.80;99.90;;;;;;4978132;28;20238;-90
2022/01/09 03:24:54;;;;;;;2.15;0.52;;;6.40;99.90;;;;;;4983526;28;20279;-87
2022/01/09 03:27:21;;;;;;;2.00;0.43;;;6.30;99.90;;;;;;4983309;28;20260;-89
2022/01/09 03:29:49;;;;;;;2.00;0.50;;;6.70;99.90;;;;;;4991086;28;20199;-87
2022/01/09 03:32:16;;;;;;;2.20;0.50;;;6.50;99.90;;;;;;4993878;28;20211;-89
2022/01/09 03:34:43;;;;;;;1.98;0.40;;;6.70;99.90;;;;;;4989144;28;20242;-89
2022/01/09 03:37:09;;;;;;;2.00;0.40;;;6.30;99.90;;;;;;4978823;28;20289;-88
2022/01/09 03:39:38;;;;;;;1.95;0.40;;;6.30;99.90;;;;;;4984794;28;20211;-89
2022/01/09 03:42:05;;;;;;;2.55;0.47;;;6.60;99.90;;;;;;4994504;28;20234;-88
2022/01/09 03:44:32;;;;;;;2.63;0.45;;;6.90;99.90;;;;;;4995200;28;20277;-88
2022/01/09 03:47:01;;;;;;;2.15;0.45;;;6.70;99.90;;;;;;4986678;28;20246;-88
2022/01/09 03:49:28;;;;;;;2.00;0.40;;;6.70;99.90;;;;;;4995171;28;20259;-88
2022/01/09 03:51:56;;;;;;;2.38;0.50;;;6.60;99.90;;;;;;4998475;28;20216;-88
2022/01/09 03:54:23;;;;;;;2.50;0.68;;;6.80;99.90;;;;;;4980782;28;20684;-88
2022/01/09 03:56:50;;;;;;;2.10;0.50;;;6.90;99.90;;;;;;4979953;28;20238;-86
2022/01/09 03:59:18;;;;;;;2.05;0.40;;;6.80;99.90;;;;;;4977233;28;20212;-89
2022/01/09 04:01:46;;;;;;;2.00;0.40;;;6.90;99.90;;;;;;4987607;28;20227;-89
2022/01/09 04:04:14;;;;;;;2.95;0.60;;;6.70;99.90;;;;;;4992195;28;20286;-89
2022/01/09 04:06:45;;;;;;;3.83;0.80;;;6.60;99.90;;;;;;4980267;28;20590;-89
2022/01/09 04:09:19;;;;;;;2.20;0.55;;;6.60;99.90;;;;;;4991359;28;20200;-89
2022/01/09 04:11:46;;;;;;;2.40;0.50;;;6.80;99.90;;;;;;4983410;28;20251;-88
2022/01/09 04:14:13;;;;;;;2.10;0.50;;;6.50;99.90;;;;;;4988715;28;20229;-89
2022/01/09 04:16:41;;;;;;;2.40;0.60;;;7.00;99.90;;;;;;4981533;28;20239;-89
2022/01/09 04:19:12;;;;;;;2.00;0.40;;;6.60;99.90;;;;;;4978247;28;20604;-89
2022/01/09 04:21:41;;;;;;;2.10;0.60;;;6.90;99.90;;;;;;4978295;28;20211;-89
2022/01/09 04:24:08;;;;;;;2.35;0.60;;;6.90;99.90;;;;;;4977241;28;20267;-89
2022/01/09 04:26:35;;;;;;;2.10;0.40;;;6.50;99.90;;;;;;4977364;28;20231;-88
2022/01/09 04:29:02;;;;;;;2.13;0.50;;;6.40;99.90;;;;;;4977726;28;20215;-89
2022/01/09 04:31:29;;;;;;;2.20;0.50;;;6.60;99.90;;;;;;4977560;28;20203;-89
2022/01/09 04:33:59;;;;;;;2.47;0.40;;;6.80;99.90;;;;;;4977955;28;20274;-89
2022/01/09 04:36:26;;;;;;;2.10;0.50;;;6.40;99.90;;;;;;4978302;28;20254;-89
2022/01/09 04:38:55;;;;;;;2.90;0.40;;;6.40;99.90;;;;;;4978618;28;20212;-88
2022/01/09 04:41:22;;;;;;;2.05;0.55;;;6.50;99.90;;;;;;4988130;28;20206;-89
2022/01/09 04:43:50;;;;;;;2.50;0.60;;;6.70;99.90;;;;;;4996327;28;20247;-89
2022/01/09 04:46:23;;;;;;;1.98;0.40;;;6.60;99.90;;;;;;4996954;28;20215;-89
2022/01/09 04:48:53;;;;;;;2.22;0.50;;;6.90;99.90;;;;;;5000311;28;20202;-88
2022/01/09 04:51:20;;;;;;;2.05;0.40;;;6.80;99.90;;;;;;4991857;28;20266;-89
2022/01/09 04:53:46;;;;;;;2.20;0.40;;;6.30;99.90;;;;;;4982176;28;20220;-89
2022/01/09 04:56:15;;;;;;;1.90;0.35;;;6.70;99.90;;;;;;4981743;28;20266;-89
2022/01/09 04:58:42;;;;;;;2.00;0.40;;;6.20;99.90;;;;;;4982246;28;20218;-89
2022/01/09 05:01:09;;;;;;;2.30;0.40;;;6.70;99.90;;;;;;4995757;28;20236;-89
2022/01/09 05:03:36;;;;;;;2.33;0.60;;;6.20;99.90;;;;;;4992188;28;20326;-89
2022/01/09 05:06:02;;;;;;;2.00;0.40;;;6.20;99.90;;;;;;4982233;28;20306;-89
2022/01/09 05:08:29;;;;;;;2.30;0.70;;;6.30;99.90;;;;;;4982056;28;20233;-88
2022/01/09 05:10:56;;;;;;;2.30;0.40;;;6.50;99.90;;;;;;4981931;28;20250;-89
2022/01/09 05:13:25;;;;;;;2.00;0.40;;;6.40;99.90;;;;;;4998893;28;20228;-87
2022/01/09 05:15:52;;;;;;;2.10;0.40;;;6.20;99.90;;;;;;4989101;28;20307;-87
2022/01/09 05:18:19;;;;;;;2.00;0.50;;;6.10;99.90;;;;;;4998029;28;20254;-87
2022/01/09 05:20:46;;;;;;;2.10;0.40;;;6.20;99.90;;;;;;4994862;28;20210;-87
2022/01/09 05:23:14;;;;;;;1.90;0.40;;;6.00;99.90;;;;;;4982985;28;20227;-87
2022/01/09 05:25:41;;;;;;;2.05;0.35;;;6.10;99.90;;;;;;4982502;28;20211;-88
2022/01/09 05:28:08;;;;;;;2.40;0.50;;;6.10;99.90;;;;;;4982029;28;20269;-88
2022/01/09 05:30:36;;;;;;;1.98;0.38;;;6.20;99.90;;;;;;4983833;28;20217;-89
2022/01/09 05:33:03;;;;;;;2.00;0.50;;;6.00;99.90;;;;;;4989782;28;20274;-87
2022/01/09 05:35:30;;;;;;;2.00;0.40;;;6.30;99.90;;;;;;4988491;28;20237;-88
2022/01/09 05:37:57;;;;;;;2.00;0.40;;;5.80;99.90;;;;;;4981425;28;20580;-88
2022/01/09 05:40:23;;;;;;;2.00;0.40;;;5.60;99.90;;;;;;4991414;28;20218;-87
2022/01/09 05:42:50;;;;;;;2.20;0.40;;;6.00;99.90;;;;;;4981968;28;20245;-87
2022/01/09 05:45:18;;;;;;;2.22;0.40;;;6.00;99.90;;;;;;4980139;28;20270;-88
2022/01/09 05:47:47;;;;;;;2.38;0.50;;;6.10;99.90;;;;;;4986819;28;20235;-89
2022/01/09 05:50:14;;;;;;;2.00;0.40;;;5.60;99.90;;;;;;4988418;28;20234;-88
2022/01/09 05:52:41;;;;;;;1.98;0.40;;;6.00;99.90;;;;;;4987931;28;20220;-89
2022/01/09 05:55:08;;;;;;;2.30;0.50;;;5.70;99.90;;;;;;4985761;28;20233;-88
2022/01/09 05:57:35;;;;;;;2.00;0.40;;;6.00;99.90;;;;;;4992944;28;20232;-88
2022/01/09 06:00:05;;;;;;;2.17;0.40;;;5.60;99.90;;;;;;4988009;28;20285;-89
2022/01/09 06:02:32;;;;;;;2.00;0.40;;;5.50;99.90;;;;;;4985962;28;20202;-88
2022/01/09 06:05:01;;;;;;;2.20;0.50;;;5.60;99.90;;;;;;4986206;28;20550;-88
2022/01/09 06:07:27;;;;;;;2.00;0.40;;;5.40;99.90;;;;;;4982914;28;20233;-88
2022/01/09 06:09:54;;;;;;;2.10;0.40;;;5.40;99.90;;;;;;4980945;28;20211;-88
2022/01/09 06:12:21;;;;;;;2.05;0.45;;;5.50;99.90;;;;;;4980703;28;20647;-89
2022/01/09 06:14:48;;;;;;;4.15;0.65;;;5.80;99.90;;;;;;4987185;28;20298;-89
2022/01/09 12:18:00;;;;;;;6.80;1.98;;;7.70;99.90;;;;;;4860556;23;20235;-88
2022/01/09 12:20:29;;;;;;;4.40;1.23;;;7.80;99.90;;;;;;5004296;28;20322;-88
2022/01/09 12:23:03;;;;;;;3.58;1.20;;;8.00;99.90;;;;;;5003200;28;20212;-89
2022/01/09 12:25:52;;;;;;;7.68;1.65;;;8.00;99.90;;;;;;5007861;28;20221;-88
2022/01/09 12:28:24;;;;;;;6.65;1.70;;;8.00;99.90;;;;;;5009366;28;20235;-89
2022/01/09 12:30:55;;;;;;;7.28;2.00;;;8.00;99.90;;;;;;5003780;28;20227;-88
2022/01/09 12:33:49;;;;;;;4.95;1.20;;;8.00;99.90;;;;;;5000306;28;20207;-87
2022/01/09 12:36:26;;;;;;;5.80;1.45;;;8.00;99.90;;;;;;4999447;28;20216;-88
2022/01/09 12:38:59;;;;;;;3.22;1.33;;;8.00;99.90;;;;;;5003728;28;20237;-87
2022/01/09 12:41:32;;;;;;;4.03;1.60;;;8.10;99.90;;;;;;5009974;28;20310;-88
2022/01/09 12:44:05;;;;;;;5.93;1.60;;;7.80;99.90;;;;;;5002265;28;20192;-88
2022/01/09 12:46:34;;;;;;;6.07;1.50;;;7.90;99.90;;;;;;5007881;28;20207;-88
2022/01/09 12:49:06;;;;;;;5.63;1.33;;;7.70;99.90;;;;;;5014587;28;20219;-88
2022/01/09 12:51:36;;;;;;;7.13;1.80;;;7.40;99.90;;;;;;5017345;28;20180;-86
2022/01/09 12:54:06;;;;;;;4.70;1.52;;;7.40;99.90;;;;;;5008555;28;20227;-89
2022/01/09 12:56:36;;;;;;;5.03;1.60;;;7.50;99.90;;;;;;5004612;28;20231;-88
2022/01/09 12:59:07;;;;;;;5.07;1.50;;;7.40;99.90;;;;;;5012423;28;20237;-88
2022/01/09 13:01:38;;;;;;;4.82;1.40;;;7.40;99.90;;;;;;5011378;28;20228;-88
2022/01/09 13:04:15;;;;;;;4.45;1.00;;;7.70;99.90;;;;;;5012742;28;20194;-88
2022/01/09 13:06:43;;;;;;;5.72;1.70;;;7.60;99.90;;;;;;5014923;28;20294;-88
2022/01/09 13:09:15;;;;;;;4.03;1.58;;;7.20;99.90;;;;;;5019954;28;20221;-88
2022/01/09 13:11:45;;;;;;;4.57;1.27;;;7.40;99.90;;;;;;5019370;28;20195;-88
2022/01/09 13:14:25;;;;;;;6.78;1.20;;;7.60;99.90;;;;;;5012331;28;20215;-88
2022/01/09 13:16:59;;;;;;;5.30;2.35;;;7.60;99.90;;;;;;5005866;28;20558;-87
2022/01/09 13:19:28;;;;;;;3.80;1.20;;;7.50;99.90;;;;;;5006263;28;20223;-89
2022/01/09 13:21:55;;;;;;;4.78;1.85;;;7.40;99.90;;;;;;5007051;28;20219;-88
2022/01/09 13:24:23;;;;;;;5.07;1.10;;;7.20;99.90;;;;;;5006978;28;20207;-87
2022/01/09 13:26:53;;;;;;;3.10;1.15;;;7.10;99.90;;;;;;5005994;28;20547;-88
2022/01/09 13:29:25;;;;;;;5.18;1.10;;;7.00;99.90;;;;;;5007937;28;20329;-88
2022/01/09 13:31:55;;;;;;;6.18;1.85;;;6.90;99.90;;;;;;5011344;28;20279;-88
2022/01/09 13:34:51;;;;;;;6.95;1.88;;;6.50;99.90;;;;;;5006584;28;20231;-87
2022/01/09 13:37:18;;;;;;;3.63;1.50;;;6.70;99.90;;;;;;4997706;28;20240;-88
2022/01/09 13:39:47;;;;;;;5.72;1.55;;;6.70;99.90;;;;;;5008683;28;20274;-89
2022/01/09 13:42:22;;;;;;;4.88;1.50;;;6.30;99.90;;;;;;5013243;28;20210;-88
2022/01/09 13:45:10;;;;;;;5.22;1.88;;;6.60;99.90;;;;;;5006055;28;20210;-88
2022/01/09 13:47:44;;;;;;;8.95;2.10;;;6.70;99.90;;;;;;5010258;28;20230;-89
2022/01/09 13:50:14;;;;;;;3.33;1.40;;;6.70;99.90;;;;;;5004989;28;20210;-89
2022/01/09 13:52:40;;;;;;;4.85;1.50;;;6.40;99.90;;;;;;5008357;28;20191;-87
2022/01/09 13:55:12;;;;;;;5.25;1.60;;;6.70;99.90;;;;;;5018096;28;20195;-87
2022/01/09 13:57:51;;;;;;;7.05;3.00;;;6.90;99.90;;;;;;5007807;28;20605;-87
2022/01/09 14:00:21;;;;;;;6.55;2.00;;;6.30;99.90;;;;;;5001885;28;20549;-89
2022/01/09 14:02:49;;;;;;;4.30;2.00;;;6.40;99.90;;;;;;5000774;28;20206;-88
2022/01/09 14:05:19;;;;;;;5.03;2.20;;;6.60;99.90;;;;;;5001482;28;20216;-88
2022/01/09 14:07:49;;;;;;;5.40;1.77;;;6.80;99.90;;;;;;5001901;28;20225;-88
2022/01/09 14:10:16;;;;;;;6.82;2.00;;;6.50;99.90;;;;;;5000832;28;20215;-89
2022/01/09 14:12:45;;;;;;;5.53;1.60;;;6.60;99.90;;;;;;5001455;28;20214;-88
2022/01/09 14:15:14;;;;;;;6.75;1.63;;;6.90;99.90;;;;;;5001271;28;20217;-87
2022/01/09 14:17:45;;;;;;;4.85;1.60;;;6.90;99.90;;;;;;5000542;28;20562;-88
2022/01/09 14:20:18;;;;;;;10.55;1.90;;;7.00;99.90;;;;;;5005106;28;20209;-88
2022/01/09 14:22:47;;;;;;;5.63;1.35;;;6.60;99.90;;;;;;5003940;28;20199;-88
2022/01/09 14:25:16;;;;;;;5.88;1.50;;;6.60;99.90;;;;;;5005335;28;20210;-88
2022/01/09 14:27:46;;;;;;;3.72;1.42;;;6.60;99.90;;;;;;5001374;28;20246;-89
2022/01/09 14:30:25;;;;;;;4.93;2.20;;;6.60;99.90;;;;;;5001987;28;20253;-88
2022/01/09 14:33:10;;;;;;;4.00;1.40;;;6.80;99.90;;;;;;5002378;28;20258;-89
2022/01/09 14:35:40;;;;;;;6.03;2.13;;;7.00;99.90;;;;;;5007099;28;20208;-89
2022/01/09 14:38:09;;;;;;;6.97;1.98;;;6.40;99.90;;;;;;5003355;28;20255;-89
2022/01/09 14:40:37;;;;;;;6.93;2.30;;;6.80;99.90;;;;;;5004866;28;20270;-88
2022/01/09 14:43:05;;;;;;;5.90;2.63;;;6.80;99.90;;;;;;5005418;28;20217;-88
2022/01/09 14:45:32;;;;;;;4.65;1.95;;;6.30;99.90;;;;;;5005200;28;20263;-87
2022/01/09 14:47:59;;;;;;;8.65;2.90;;;6.30;99.90;;;;;;5004721;28;20238;-88
2022/01/09 14:50:26;;;;;;;6.07;2.70;;;6.20;99.90;;;;;;5013227;28;20229;-88
2022/01/09 14:52:55;;;;;;;5.03;1.60;;;6.60;99.90;;;;;;5009690;28;20211;-88
2022/01/09 14:55:22;;;;;;;5.35;1.92;;;6.50;99.90;;;;;;5005412;28;20550;-88
2022/01/09 14:57:49;;;;;;;5.38;1.60;;;6.30;99.90;;;;;;4999570;28;20235;-88
2022/01/09 15:00:18;;;;;;;6.68;2.55;;;6.60;99.90;;;;;;5001030;28;20598;-87
2022/01/09 15:02:46;;;;;;;6.00;1.80;;;6.50;99.90;;;;;;5013673;28;20293;-88
2022/01/09 15:05:13;;;;;;;5.88;2.35;;;6.50;99.90;;;;;;5016623;28;20234;-89
2022/01/09 15:07:40;;;;;;;7.22;2.00;;;6.10;99.90;;;;;;5007761;28;20263;-88
2022/01/09 15:10:09;;;;;;;9.20;3.08;;;6.60;99.90;;;;;;5014617;28;20271;-87
2022/01/09 15:12:37;;;;;;;7.53;2.58;;;6.60;99.90;;;;;;5007123;28;20211;-88
2022/01/09 15:15:05;;;;;;;4.75;2.08;;;6.10;99.90;;;;;;5005632;28;20209;-89
2022/01/09 15:17:32;;;;;;;5.32;1.55;;;6.70;99.90;;;;;;5003667;28;20235;-86
2022/01/09 15:20:02;;;;;;;6.00;1.38;;;6.80;99.90;;;;;;5008705;28;20215;-88
2022/01/09 15:22:29;;;;;;;10.25;1.80;;;6.30;99.90;;;;;;5000950;28;20242;-89
2022/01/09 15:24:57;;;;;;;5.68;1.30;;;6.40;99.90;;;;;;5003819;28;20210;-88
2022/01/09 15:27:26;;;;;;;4.13;1.27;;;6.50;99.90;;;;;;4999714;28;20221;-89
2022/01/09 15:29:53;;;;;;;8.40;1.40;;;6.30;99.90;;;;;;5002045;28;20225;-87
2022/01/09 15:32:20;;;;;;;2.63;1.02;;;6.20;99.90;;;;;;5004269;28;20211;-89
2022/01/09 15:34:47;;;;;;;3.20;1.00;;;5.90;99.90;;;;;;5000558;28;20209;-89
2022/01/09 15:37:14;;;;;;;3.45;1.30;;;5.70;99.90;;;;;;4999395;28;20230;-89
2022/01/09 15:39:41;;;;;;;4.90;1.60;;;5.40;99.90;;;;;;5000848;28;20215;-88
2022/01/09 15:42:08;;;;;;;3.47;0.80;;;5.90;99.90;;;;;;5000761;28;20213;-88
2022/01/09 15:44:37;;;;;;;5.15;1.17;;;5.60;99.90;;;;;;5002907;28;20208;-88
2022/01/09 15:47:04;;;;;;;3.78;1.02;;;5.40;99.90;;;;;;5004825;28;20225;-87
2022/01/09 15:49:31;;;;;;;3.25;1.25;;;5.00;99.90;;;;;;5017752;28;20270;-86
2022/01/09 15:51:58;;;;;;;4.38;1.30;;;5.30;99.90;;;;;;5013430;28;20213;-86
2022/01/09 15:54:25;;;;;;;4.03;1.33;;;5.20;99.90;;;;;;5003546;28;20206;-87
2022/01/09 15:56:52;;;;;;;5.68;1.77;;;5.20;99.90;;;;;;4999035;28;20219;-88
2022/01/09 15:59:19;;;;;;;4.85;1.55;;;4.80;99.90;;;;;;4999016;28;20279;-88
2022/01/09 16:01:53;;;;;;;6.20;2.15;;;5.00;99.90;;;;;;4998775;28;20619;-88
2022/01/09 16:04:19;;;;;;;8.75;1.50;;;5.30;99.90;;;;;;4999302;28;20635;-88
2022/01/09 16:06:46;;;;;;;4.25;1.50;;;4.90;99.90;;;;;;5003142;28;20208;-87
2022/01/09 16:09:14;;;;;;;6.00;2.38;;;5.40;99.90;;;;;;5000123;28;20268;-88
2022/01/09 16:11:41;;;;;;;8.52;2.58;;;5.30;99.90;;;;;;5000501;28;20274;-88
2022/01/09 16:14:08;;;;;;;6.50;2.53;;;4.90;99.90;;;;;;5002499;28;20206;-87
2022/01/09 16:16:35;;;;;;;4.72;1.95;;;5.10;99.90;;;;;;5003377;28;20229;-88
2022/01/09 16:19:04;;;;;;;7.20;2.25;;;4.90;99.90;;;;;;5005486;28;20349;-87
2022/01/09 16:21:31;;;;;;;13.85;6.50;;;5.40;99.90;;;;;;5001802;28;20283;-87
2022/01/09 16:24:01;;;;;;;7.55;2.28;;;5.30;99.90;;;;;;5000003;28;20221;-86
2022/01/09 16:26:27;;;;;;;8.40;3.75;;;5.30;99.90;;;;;;4998806;28;20220;-87
2022/01/09 16:28:54;;;;;;;8.95;2.58;;;4.80;99.90;;;;;;4999311;28;20249;-88
2022/01/09 16:31:22;;;;;;;6.15;2.90;;;4.90;99.90;;;;;;5014251;28;20194;-86
2022/01/09 16:33:51;;;;;;;5.40;2.28;;;4.90;99.90;;;;;;5002018;28;20218;-86
2022/01/09 16:36:22;;;;;;;5.63;2.55;;;5.10;99.90;;;;;;5001304;28;20218;-89
2022/01/09 16:38:49;;;;;;;5.47;2.20;;;5.10;99.90;;;;;;5011429;28;20304;-88
2022/01/09 16:41:19;;;;;;;5.43;2.85;;;4.90;99.90;;;;;;5019804;28;20197;-86
2022/01/09 16:43:47;;;;;;;4.93;2.20;;;5.00;99.90;;;;;;5015464;28;20229;-85
2022/01/09 16:46:15;;;;;;;13.43;3.50;;;5.50;99.90;;;;;;5001879;28;20275;-85
2022/01/09 16:48:42;;;;;;;7.30;2.83;;;5.00;99.90;;;;;;5001524;28;20236;-88
2022/01/09 16:51:12;;;;;;;4.53;2.38;;;5.50;99.90;;;;;;5003535;28;20209;-86
2022/01/09 16:53:42;;;;;;;8.65;2.85;;;5.50;99.90;;;;;;5004238;28;20574;-88
2022/01/09 16:56:11;;;;;;;7.43;3.10;;;5.50;99.90;;;;;;5005967;28;20354;-89
2022/01/09 16:58:41;;;;;;;10.32;3.00;;;5.50;99.90;;;;;;5004550;28;20233;-88
2022/01/09 17:01:09;;;;;;;9.02;2.65;;;5.80;99.90;;;;;;5006394;28;20283;-89
2022/01/09 17:03:37;;;;;;;6.63;2.70;;;5.30;99.90;;;;;;5004928;28;20248;-88
2022/01/09 17:06:10;;;;;;;6.90;3.33;;;5.70;99.90;;;;;;5004874;28;20205;-89
2022/01/09 17:08:38;;;;;;;6.88;2.35;;;5.30;99.90;;;;;;5005385;28;20253;-88
2022/01/09 17:11:07;;;;;;;10.20;2.70;;;5.50;99.90;;;;;;5015013;28;20203;-86
2022/01/09 17:13:35;;;;;;;6.20;3.17;;;5.40;99.90;;;;;;5016949;28;20238;-88
2022/01/09 17:16:02;;;;;;;6.78;2.95;;;5.10;99.90;;;;;;5014428;28;20202;-88
2022/01/09 17:18:29;;;;;;;6.70;2.92;;;5.40;99.90;;;;;;5011727;28;20259;-87
2022/01/09 17:20:56;;;;;;;10.85;4.15;;;4.80;99.90;;;;;;5004694;28;20213;-88
2022/01/09 17:23:23;;;;;;;9.73;3.90;;;5.20;99.90;;;;;;5003966;28;20273;-88
2022/01/09 17:25:50;;;;;;;8.32;3.75;;;5.40;99.90;;;;;;5003856;28;20213;-88
2022/01/09 17:28:19;;;;;;;11.48;4.03;;;4.70;99.90;;;;;;5002636;28;20233;-87
2022/01/09 17:30:46;;;;;;;9.65;4.20;;;4.70;99.90;;;;;;5002656;28;20245;-88
2022/01/09 17:33:14;;;;;;;6.25;3.85;;;4.70;99.90;;;;;;5002243;28;20293;-89
2022/01/09 17:35:41;;;;;;;8.82;4.68;;;4.90;99.90;;;;;;5005351;28;20223;-88
2022/01/09 17:38:09;;;;;;;9.02;4.32;;;4.90;99.90;;;;;;5007308;28;20226;-88
2022/01/09 17:40:36;;;;;;;9.80;4.60;;;4.80;99.90;;;;;;5002931;28;20216;-89
2022/01/09 17:43:04;;;;;;;10.75;4.65;;;4.90;99.90;;;;;;5002021;28;20219;-88
2022/01/09 17:45:32;;;;;;;12.32;5.68;;;5.00;99.90;;;;;;5002185;28;20231;-86
2022/01/09 17:47:59;;;;;;;13.30;5.20;;;5.00;99.90;;;;;;5002475;28;20737;-89
2022/01/09 17:50:26;;;;;;;11.98;5.78;;;5.00;99.90;;;;;;5003701;28;20224;-89
2022/01/09 17:52:53;;;;;;;9.88;5.53;;;5.00;99.90;;;;;;5012236;28;20229;-88
2022/01/09 17:55:20;;;;;;;9.40;4.90;;;4.50;99.90;;;;;;5017917;28;20220;-88
2022/01/09 17:57:47;;;;;;;12.80;5.45;;;4.70;99.90;;;;;;5005452;28;20709;-87
2022/01/09 18:00:15;;;;;;;8.20;5.05;;;5.00;99.90;;;;;;5003647;28;20245;-87
2022/01/09 18:02:50;;;;;;;10.73;5.53;;;4.90;99.90;;;;;;5006785;28;20214;-88
2022/01/09 18:05:19;;;;;;;12.00;5.30;;;5.00;99.90;;;;;;5006706;28;20304;-88
2022/01/09 18:07:46;;;;;;;11.93;5.43;;;4.70;99.90;;;;;;5005323;28;20229;-88
2022/01/09 18:10:13;;;;;;;9.07;4.90;;;4.60;99.90;;;;;;5007316;28;20214;-87
2022/01/09 18:12:40;;;;;;;11.18;5.32;;;5.10;99.90;;;;;;5006468;28;20235;-88
2022/01/09 18:15:08;;;;;;;9.02;4.28;;;4.80;99.90;;;;;;5006658;28;20241;-88
2022/01/09 18:17:35;;;;;;;9.75;5.13;;;5.20;99.90;;;;;;5080226;23;22069;-88
2022/01/09 18:20:05;;;;;;;10.30;5.43;;;4.90;99.90;;;;;;4985312;28;20220;-86
2022/01/09 18:22:32;;;;;;;9.70;4.32;;;5.00;99.90;;;;;;4984444;28;20239;-88
2022/01/09 18:24:59;;;;;;;7.57;4.35;;;4.70;99.90;;;;;;4982314;28;20221;-87
2022/01/09 18:27:26;;;;;;;8.50;4.20;;;5.00;99.90;;;;;;4990535;28;20301;-87
2022/01/09 18:29:53;;;;;;;10.07;3.72;;;4.90;99.90;;;;;;4997013;28;20194;-87
2022/01/09 18:32:20;;;;;;;8.88;4.75;;;5.30;99.90;;;;;;4994156;28;20210;-87
2022/01/09 18:34:47;;;;;;;9.25;4.57;;;4.80;99.90;;;;;;4985475;28;20245;-86
2022/01/09 18:37:24;;;;;;;10.48;5.70;;;4.70;99.90;;;;;;4986268;28;20257;-88
2022/01/09 18:39:53;;;;;;;11.05;5.07;;;4.90;99.90;;;;;;4986287;28;20588;-86
2022/01/09 18:42:20;;;;;;;14.05;5.70;;;5.10;99.90;;;;;;4983495;28;20215;-86
2022/01/09 18:44:48;;;;;;;8.80;5.07;;;4.70;99.90;;;;;;4983706;28;20277;-85
2022/01/09 18:47:15;;;;;;;12.48;5.93;;;4.90;99.90;;;;;;4982132;28;20208;-87
2022/01/09 18:49:42;;;;;;;9.80;4.72;;;5.00;99.90;;;;;;4979488;28;20293;-87
2022/01/09 18:52:09;;;;;;;10.10;5.32;;;5.20;99.90;;;;;;4980203;28;20221;-87
2022/01/09 18:54:41;;;;;;;8.80;5.38;;;5.00;99.90;;;;;;4981992;28;20206;-85
2022/01/09 18:57:12;;;;;;;12.02;6.93;;;4.90;99.90;;;;;;4981200;28;20196;-88
2022/01/09 18:59:40;;;;;;;10.52;5.55;;;5.00;99.90;;;;;;4984409;28;20214;-88
2022/01/09 19:02:07;;;;;;;12.73;5.88;;;5.20;99.90;;;;;;4995623;28;20355;-87